createdAt,value
2018-07-27T17:10:58.267Z,26.30
2018-07-27T17:15:54.409Z,25.80
2018-07-27T17:18:22.477Z,25.80
2018-07-27T17:20:51.802Z,25.70
2018-07-27T17:23:20.142Z,25.60
2018-07-27T17:28:16.611Z,25.60
2018-07-27T17:30:44.967Z,25.60
2018-07-27T17:33:13.071Z,25.50
2018-07-27T17:38:09.186Z,25.00
2018-07-27T17:40:37.270Z,24.80
2018-07-27T17:43:05.692Z,24.70
2018-07-27T17:45:34.085Z,24.50
2018-07-27T17:48:02.326Z,24.50
2018-07-27T17:50:30.475Z,24.60
2018-07-27T17:52:59.672Z,24.70
2018-07-27T17:55:27.873Z,24.80
2018-07-27T18:00:24.657Z,24.70
2018-07-27T18:05:21.710Z,24.40
2018-07-27T18:10:17.875Z,24.10
2018-07-27T18:12:46.179Z,24.10
2018-07-27T18:15:14.499Z,23.80
2018-07-27T18:17:42.602Z,23.60
2018-07-27T18:20:11.827Z,23.70
2018-07-27T18:22:40.265Z,23.80
2018-07-27T18:25:12.501Z,23.90
2018-07-27T18:27:41.819Z,23.90
2018-07-27T18:32:38.790Z,24.20
2018-07-27T18:35:08.146Z,24.30
2018-07-27T18:37:36.670Z,24.10
2018-07-27T18:40:05.313Z,24.20
2018-07-27T18:42:33.470Z,24.10
2018-07-27T18:45:01.906Z,23.90
2018-07-27T18:47:30.258Z,23.90
2018-07-27T18:49:58.706Z,23.90
2018-07-27T18:54:54.785Z,23.90
2018-07-27T18:57:23.351Z,23.50
2018-07-27T18:59:51.551Z,23.40
2018-07-27T19:02:19.877Z,23.40
2018-07-27T19:04:48.281Z,23.30
2018-07-27T19:07:16.461Z,23.10
2018-07-27T19:09:44.775Z,23.00
2018-07-27T19:12:13.105Z,22.90
2018-07-27T19:14:41.547Z,22.90
2018-07-27T19:19:37.793Z,22.90
2018-07-27T19:22:06.148Z,22.90
2018-07-27T19:24:35.332Z,22.80
2018-07-27T19:27:03.625Z,22.80
2018-07-27T19:29:31.751Z,22.90
2018-07-27T19:31:59.852Z,23.00
2018-07-27T19:34:28.227Z,23.00
2018-07-27T19:36:56.581Z,23.00
2018-07-27T19:39:24.899Z,22.80
2018-07-27T19:41:52.966Z,22.80
2018-07-27T19:51:45.306Z,22.80
2018-07-27T19:54:14.306Z,22.90
2018-07-27T19:56:42.764Z,22.70
2018-07-27T20:01:38.814Z,23.00
2018-07-27T20:04:06.934Z,23.00
2018-07-27T20:06:35.287Z,23.10
2018-07-27T20:09:05.963Z,22.90
2018-07-27T20:11:34.122Z,23.00
2018-07-27T20:21:26.524Z,23.10
2018-07-27T20:23:54.773Z,23.10
2018-07-27T20:26:23.850Z,23.20
2018-07-27T20:28:53.094Z,23.10
2018-07-27T20:33:51.455Z,22.90
2018-07-27T20:36:19.837Z,23.00
2018-07-27T20:38:48.147Z,23.20
2018-07-27T20:41:16.347Z,23.20
2018-07-27T20:43:44.404Z,23.30
2018-07-27T20:48:40.485Z,23.20
2018-07-27T20:51:08.829Z,23.20
2018-07-27T20:53:37.186Z,23.20
2018-07-27T20:58:33.717Z,23.20
2018-07-27T21:03:29.749Z,22.80
2018-07-27T21:05:57.844Z,22.80
2018-07-27T21:08:25.962Z,22.70
2018-07-27T21:13:22.538Z,22.80
2018-07-27T21:15:50.726Z,22.70
2018-07-27T21:18:18.770Z,22.70
2018-07-27T21:20:47.146Z,22.70
2018-07-27T21:23:15.330Z,22.60
2018-07-27T21:25:44.144Z,22.50
2018-07-27T21:28:12.326Z,22.50
2018-07-27T21:30:40.372Z,22.50
2018-07-27T21:33:08.530Z,22.50
2018-07-27T21:35:39.782Z,22.50
2018-07-27T21:38:08.249Z,22.40
2018-07-27T21:40:36.430Z,22.40
2018-07-27T21:43:04.821Z,22.30
2018-07-27T21:48:00.920Z,22.20
2018-07-27T21:50:29.053Z,22.20
2018-07-27T21:52:57.053Z,22.30
2018-07-27T21:57:53.356Z,22.50
2018-07-27T22:00:21.691Z,22.50
2018-07-27T22:02:50.024Z,22.60
2018-07-27T22:07:49.186Z,22.60
2018-07-27T22:10:17.270Z,22.60
2018-07-27T22:12:46.198Z,22.60
2018-07-27T22:15:19.848Z,22.60
2018-07-27T22:17:48.094Z,22.70
2018-07-27T22:20:16.331Z,22.70
2018-07-27T22:22:44.730Z,22.70
2018-07-27T22:25:13.013Z,22.70
2018-07-27T22:27:41.235Z,22.60
2018-07-27T22:30:10.735Z,22.50
2018-07-27T22:32:38.906Z,22.40
2018-07-27T22:35:07.334Z,22.30
2018-07-27T22:37:36.038Z,22.30
2018-07-27T22:42:32.591Z,22.00
2018-07-27T22:45:00.753Z,22.10
2018-07-27T22:47:29.042Z,22.20
2018-07-27T22:49:57.230Z,22.00
2018-07-27T22:52:25.480Z,22.00
2018-07-27T22:54:53.639Z,21.90
2018-07-27T22:57:22.038Z,21.90
2018-07-27T22:59:50.287Z,21.80
2018-07-27T23:04:47.730Z,21.80
2018-07-27T23:07:15.750Z,21.70
2018-07-27T23:09:43.832Z,21.70
2018-07-27T23:12:11.888Z,21.50
2018-07-27T23:14:39.973Z,21.50
2018-07-27T23:17:08.135Z,21.40
2018-07-27T23:19:36.482Z,21.30
2018-07-27T23:24:32.617Z,21.30
2018-07-27T23:27:00.778Z,21.30
2018-07-27T23:29:29.400Z,21.30
2018-07-27T23:31:57.817Z,21.30
2018-07-27T23:34:26.082Z,21.10
2018-07-27T23:36:54.182Z,21.10
2018-07-27T23:39:22.189Z,21.10
2018-07-27T23:41:50.346Z,21.10
2018-07-27T23:44:18.390Z,21.00
2018-07-27T23:46:46.478Z,21.10
2018-07-27T23:49:14.493Z,21.30
2018-07-27T23:51:42.607Z,21.10
2018-07-27T23:54:10.682Z,21.10
2018-07-27T23:56:38.654Z,21.30
2018-07-27T23:59:06.906Z,21.10
